Wetterdaten: Woche 28.12.09 - 03.01.10 (KW53)
Datum Zeit Temperatur Luftfeuchte Luftdruck Niederschlag Windrichtung Wind
28.12.2009 00:00 1,3 C 94 % 1009,1 hPa 0,2 l/m W-SW 19,3 km/h (3 Bft)
28.12.2009 01:00 1,5 C 93 % 1008,8 hPa 0,0 l/m W-SW 24,3 km/h (4 Bft)
28.12.2009 02:00 1,4 C 90 % 1008,9 hPa 0,0 l/m W 23,7 km/h (4 Bft)
28.12.2009 03:00 1,6 C 89 % 1009,1 hPa 0,0 l/m W 25,9 km/h (4 Bft)
28.12.2009 04:00 1,5 C 89 % 1008,8 hPa 0,0 l/m W-SW 21,0 km/h (4 Bft)
28.12.2009 05:00 1,4 C 90 % 1008,6 hPa 0,0 l/m SW 14,6 km/h (3 Bft)
28.12.2009 06:00 0,4 C 93 % 1008,5 hPa 0,0 l/m SW 7,9 km/h (2 Bft)
28.12.2009 07:00 -0,4 C 94 % 1008,2 hPa 0,0 l/m SW 4,8 km/h (1 Bft)
28.12.2009 08:00 -0,9 C 95 % 1008,1 hPa 0,0 l/m SW 3,6 km/h (1 Bft)
28.12.2009 09:00 -0,2 C 97 % 1008,0 hPa 0,0 l/m SW 2,8 km/h (1 Bft)
28.12.2009 10:00 1,9 C 92 % 1007,7 hPa 0,0 l/m S-SW 8,6 km/h (2 Bft)
28.12.2009 11:00 3,3 C 85 % 1007,5 hPa 0,0 l/m S-SW 11,2 km/h (2 Bft)
28.12.2009 12:00 4,0 C 79 % 1006,9 hPa 0,0 l/m S-SW 12,4 km/h (3 Bft)
28.12.2009 13:00 3,3 C 80 % 1006,2 hPa 0,0 l/m SW 9,3 km/h (2 Bft)
28.12.2009 14:00 3,0 C 82 % 1005,8 hPa 0,0 l/m SW 5,6 km/h (1 Bft)
28.12.2009 15:00 2,9 C 82 % 1005,8 hPa 0,0 l/m N 1,6 km/h (1 Bft)
28.12.2009 16:00 2,4 C 84 % 1006,2 hPa 0,0 l/m N 0,8 km/h (0 Bft)
28.12.2009 17:00 1,2 C 87 % 1006,1 hPa 0,0 l/m SW 1,7 km/h (1 Bft)
28.12.2009 18:00 0,2 C 90 % 1006,1 hPa 0,0 l/m N 0,5 km/h (0 Bft)
28.12.2009 19:00 -0,6 C 91 % 1006,2 hPa 0,0 l/m N 0,3 km/h (0 Bft)
28.12.2009 20:00 -1,4 C 92 % 1006,5 hPa 0,0 l/m N 0,3 km/h (0 Bft)
28.12.2009 21:00 -1,8 C 93 % 1006,6 hPa 0,0 l/m W 1,9 km/h (1 Bft)
28.12.2009 22:00 -2,2 C 94 % 1006,5 hPa 0,0 l/m N 1,1 km/h (0 Bft)
28.12.2009 23:00 -2,5 C 94 % 1006,3 hPa 0,0 l/m W 2,8 km/h (1 Bft)
29.12.2009 00:00 -2,6 C 95 % 1005,8 hPa 0,0 l/m N-NW 3,2 km/h (1 Bft)
29.12.2009 01:00 -2,2 C 96 % 1005,7 hPa 0,0 l/m N-NW 3,6 km/h (1 Bft)
29.12.2009 02:00 -1,7 C 96 % 1005,8 hPa 0,0 l/m N-NW 5,1 km/h (1 Bft)
29.12.2009 03:00 -1,4 C 96 % 1005,5 hPa 0,0 l/m N-NW 2,9 km/h (1 Bft)
29.12.2009 04:00 -1,1 C 95 % 1005,3 hPa 0,0 l/m N-NW 4,0 km/h (1 Bft)
29.12.2009 05:00 -0,9 C 95 % 1005,2 hPa 0,0 l/m N-NW 2,1 km/h (1 Bft)
29.12.2009 06:00 -0,8 C 95 % 1005,0 hPa 0,4 l/m N 1,5 km/h (1 Bft)
29.12.2009 07:00 -0,7 C 96 % 1004,7 hPa 1,6 l/m N 0,8 km/h (0 Bft)
29.12.2009 08:00 -0,2 C 97 % 1004,4 hPa 1,2 l/m N 0,3 km/h (0 Bft)
29.12.2009 09:00 0,2 C 97 % 1004,3 hPa 0,0 l/m N 0,5 km/h (0 Bft)
29.12.2009 10:00 1,1 C 97 % 1004,1 hPa 0,0 l/m N-NW 2,0 km/h (1 Bft)
29.12.2009 11:00 1,6 C 96 % 1003,7 hPa 0,0 l/m N 1,3 km/h (1 Bft)
29.12.2009 12:00 2,1 C 94 % 1003,1 hPa 0,6 l/m N-NW 0,9 km/h (0 Bft)
29.12.2009 13:00 2,0 C 95 % 1002,5 hPa 1,0 l/m W 2,3 km/h (1 Bft)
29.12.2009 14:00 2,2 C 97 % 1001,9 hPa 0,4 l/m SW 12,6 km/h (3 Bft)
29.12.2009 15:00 2,6 C 97 % 1001,9 hPa 0,0 l/m W-SW 18,6 km/h (3 Bft)
29.12.2009 16:00 2,7 C 98 % 1001,8 hPa 0,0 l/m SW 21,0 km/h (4 Bft)
29.12.2009 17:00 3,9 C 99 % 1001,6 hPa 0,4 l/m SW 21,4 km/h (4 Bft)
29.12.2009 18:00 4,2 C 98 % 1001,4 hPa 0,4 l/m SW 15,3 km/h (3 Bft)
29.12.2009 19:00 3,8 C 98 % 1000,8 hPa 0,0 l/m S-SW 13,4 km/h (3 Bft)
29.12.2009 20:00 3,6 C 98 % 1001,0 hPa 0,0 l/m SW 16,2 km/h (3 Bft)
29.12.2009 21:00 3,3 C 98 % 1001,4 hPa 0,0 l/m SW 11,0 km/h (2 Bft)
29.12.2009 22:00 3,6 C 98 % 1001,2 hPa 0,0 l/m SW 12,9 km/h (3 Bft)
29.12.2009 23:00 4,3 C 99 % 1001,0 hPa 0,0 l/m SW 18,2 km/h (3 Bft)
30.12.2009 00:00 5,3 C 99 % 1000,7 hPa 0,0 l/m SW 20,5 km/h (4 Bft)
30.12.2009 01:00 6,1 C 99 % 1000,2 hPa 0,0 l/m SW 22,9 km/h (4 Bft)
30.12.2009 02:00 6,2 C 99 % 999,8 hPa 0,0 l/m SW 24,1 km/h (4 Bft)
30.12.2009 03:00 6,0 C 98 % 999,2 hPa 0,0 l/m SW 11,4 km/h (2 Bft)
30.12.2009 04:00 6,0 C 98 % 999,4 hPa 0,4 l/m SW 16,4 km/h (3 Bft)
30.12.2009 05:00 5,7 C 97 % 999,5 hPa 0,8 l/m SW 22,0 km/h (4 Bft)
30.12.2009 06:00 5,6 C 98 % 999,5 hPa 1,6 l/m SW 17,6 km/h (3 Bft)
30.12.2009 07:00 5,7 C 99 % 999,0 hPa 0,0 l/m SW 21,0 km/h (4 Bft)
30.12.2009 08:00 5,7 C 98 % 998,7 hPa 0,0 l/m S 22,1 km/h (4 Bft)
30.12.2009 09:00 5,5 C 98 % 998,3 hPa 0,0 l/m S-SO 8,6 km/h (2 Bft)
30.12.2009 10:00 5,4 C 98 % 997,5 hPa 0,2 l/m S 8,0 km/h (2 Bft)
30.12.2009 11:00 5,7 C 99 % 996,5 hPa 0,0 l/m O-SO 2,3 km/h (1 Bft)
30.12.2009 12:00 5,8 C 98 % 995,4 hPa 1,0 l/m O-SO 3,1 km/h (1 Bft)
30.12.2009 13:00 5,6 C 99 % 994,7 hPa 0,6 l/m SO 2,7 km/h (1 Bft)
30.12.2009 14:00 5,6 C 99 % 994,4 hPa 0,2 l/m SW 11,5 km/h (2 Bft)
30.12.2009 15:00 5,4 C 98 % 994,1 hPa 0,2 l/m SW 9,3 km/h (2 Bft)
30.12.2009 16:00 5,2 C 99 % 994,4 hPa 0,4 l/m SW 11,4 km/h (2 Bft)
30.12.2009 17:00 6,6 C 97 % 994,8 hPa 0,0 l/m W 29,1 km/h (5 Bft)
30.12.2009 18:00 7,3 C 92 % 995,3 hPa 0,0 l/m W-SW 23,6 km/h (4 Bft)
30.12.2009 19:00 7,1 C 93 % 995,9 hPa 0,0 l/m SW 18,9 km/h (3 Bft)
30.12.2009 20:00 6,7 C 94 % 996,1 hPa 0,0 l/m SW 13,4 km/h (3 Bft)
30.12.2009 21:00 6,0 C 96 % 996,4 hPa 0,0 l/m SW 11,0 km/h (2 Bft)
30.12.2009 22:00 5,8 C 97 % 996,9 hPa 0,0 l/m SW 10,1 km/h (2 Bft)
30.12.2009 23:00 5,6 C 97 % 997,4 hPa 0,0 l/m SW 7,9 km/h (2 Bft)
31.12.2009 00:00 5,8 C 98 % 997,2 hPa 0,0 l/m SW 12,7 km/h (3 Bft)
31.12.2009 01:00 5,9 C 96 % 996,8 hPa 0,0 l/m W-SW 14,1 km/h (3 Bft)
31.12.2009 02:00 5,5 C 96 % 996,3 hPa 0,0 l/m W-SW 18,1 km/h (3 Bft)
31.12.2009 03:00 5,8 C 96 % 995,8 hPa 0,0 l/m SW 18,5 km/h (3 Bft)
31.12.2009 04:00 6,0 C 93 % 995,1 hPa 0,0 l/m S-SW 9,9 km/h (2 Bft)
31.12.2009 05:00 5,1 C 93 % 994,8 hPa 0,4 l/m N 1,1 km/h (0 Bft)
31.12.2009 06:00 5,0 C 97 % 995,0 hPa 1,0 l/m W-SW 8,8 km/h (2 Bft)
31.12.2009 07:00 5,4 C 96 % 994,9 hPa 0,0 l/m SW 16,0 km/h (3 Bft)
31.12.2009 08:00 5,0 C 96 % 995,4 hPa 0,4 l/m SW 17,7 km/h (3 Bft)
31.12.2009 09:00 4,8 C 97 % 995,9 hPa 1,0 l/m SW 13,3 km/h (3 Bft)
31.12.2009 10:00 5,0 C 98 % 995,7 hPa 0,0 l/m SW 11,7 km/h (2 Bft)
31.12.2009 11:00 5,3 C 99 % 995,3 hPa 0,0 l/m S-SW 14,6 km/h (3 Bft)
31.12.2009 12:00 6,0 C 99 % 994,6 hPa 0,0 l/m SW 15,3 km/h (3 Bft)
31.12.2009 13:00 6,2 C 97 % 994,2 hPa 0,4 l/m W 11,1 km/h (2 Bft)
31.12.2009 14:00 6,3 C 95 % 994,0 hPa 0,4 l/m W 15,3 km/h (3 Bft)
31.12.2009 15:00 5,7 C 94 % 994,1 hPa 1,2 l/m W-SW 16,2 km/h (3 Bft)
31.12.2009 16:00 5,0 C 95 % 993,7 hPa 0,2 l/m SW 11,3 km/h (2 Bft)
31.12.2009 17:00 4,5 C 96 % 993,4 hPa 0,0 l/m SW 14,4 km/h (3 Bft)
31.12.2009 18:00 4,3 C 97 % 993,1 hPa 0,0 l/m SW 6,7 km/h (2 Bft)
31.12.2009 19:00 3,9 C 97 % 993,0 hPa 0,0 l/m S-SW 4,4 km/h (1 Bft)
31.12.2009 20:00 3,2 C 97 % 992,9 hPa 0,0 l/m SO 3,3 km/h (1 Bft)
31.12.2009 21:00 2,4 C 97 % 992,7 hPa 0,0 l/m S 1,9 km/h (1 Bft)
31.12.2009 22:00 1,6 C 97 % 992,1 hPa 0,0 l/m N 0,8 km/h (0 Bft)
31.12.2009 23:00 0,8 C 97 % 991,9 hPa 0,2 l/m N 1,1 km/h (0 Bft)
01.01.2010 00:00 0,4 C 98 % 991,5 hPa 0,0 l/m S 1,2 km/h (1 Bft)
01.01.2010 01:00 0,1 C 98 % 991,1 hPa 0,0 l/m S 2,1 km/h (1 Bft)
01.01.2010 02:00 -0,3 C 98 % 991,0 hPa 0,0 l/m S 0,9 km/h (0 Bft)
01.01.2010 03:00 -0,4 C 98 % 990,8 hPa 0,0 l/m S 2,3 km/h (1 Bft)
01.01.2010 04:00 -0,3 C 98 % 990,2 hPa 0,0 l/m S 3,2 km/h (1 Bft)
01.01.2010 05:00 -0,1 C 98 % 989,8 hPa 0,0 l/m N 0,7 km/h (0 Bft)
01.01.2010 06:00 0,2 C 99 % 989,9 hPa 0,0 l/m N 1,1 km/h (0 Bft)
01.01.2010 07:00 0,4 C 99 % 989,9 hPa 0,0 l/m S 2,1 km/h (1 Bft)
01.01.2010 08:00 0,5 C 99 % 989,9 hPa 0,0 l/m N 1,9 km/h (1 Bft)
01.01.2010 09:00 0,8 C 99 % 990,3 hPa 0,0 l/m S 1,9 km/h (1 Bft)
01.01.2010 10:00 1,3 C 99 % 990,7 hPa 0,0 l/m S 2,4 km/h (1 Bft)
01.01.2010 11:00 2,0 C 99 % 991,2 hPa 0,0 l/m S 2,3 km/h (1 Bft)
01.01.2010 12:00 2,9 C 99 % 991,2 hPa 0,0 l/m S 3,3 km/h (1 Bft)
01.01.2010 13:00 3,7 C 99 % 991,2 hPa 0,0 l/m N 6,4 km/h (2 Bft)
01.01.2010 14:00 4,1 C 99 % 991,6 hPa 0,0 l/m N 4,5 km/h (1 Bft)
01.01.2010 15:00 4,2 C 98 % 992,4 hPa 0,0 l/m N 1,3 km/h (1 Bft)
01.01.2010 16:00 4,1 C 97 % 993,3 hPa 0,0 l/m N 0,1 km/h (0 Bft)
01.01.2010 17:00 3,8 C 97 % 994,1 hPa 0,0 l/m N 0,9 km/h (0 Bft)
01.01.2010 18:00 3,4 C 97 % 995,2 hPa 0,4 l/m N 4,3 km/h (1 Bft)
01.01.2010 19:00 3,2 C 98 % 996,3 hPa 1,0 l/m N 10,1 km/h (2 Bft)
01.01.2010 20:00 2,1 C 96 % 997,7 hPa 0,6 l/m N-NW 12,0 km/h (2 Bft)
01.01.2010 21:00 1,2 C 96 % 999,4 hPa 0,2 l/m N-NW 11,6 km/h (2 Bft)
01.01.2010 22:00 0,5 C 96 % 1001,0 hPa 1,2 l/m N-NW 9,1 km/h (2 Bft)
01.01.2010 23:00 0,4 C 97 % 1002,2 hPa 0,8 l/m W-NW 7,9 km/h (2 Bft)
02.01.2010 00:00 0,2 C 97 % 1003,0 hPa 0,0 l/m W-NW 8,0 km/h (2 Bft)
02.01.2010 01:00 0,2 C 96 % 1003,8 hPa 0,2 l/m W-NW 7,5 km/h (2 Bft)
02.01.2010 02:00 -0,1 C 95 % 1005,2 hPa 0,2 l/m W-NW 9,6 km/h (2 Bft)
02.01.2010 03:00 -0,7 C 93 % 1006,3 hPa 0,0 l/m W-NW 10,1 km/h (2 Bft)
02.01.2010 04:00 -1,3 C 92 % 1007,4 hPa 0,2 l/m W-NW 11,0 km/h (2 Bft)
02.01.2010 05:00 -1,5 C 92 % 1008,5 hPa 0,2 l/m W-NW 10,5 km/h (2 Bft)
02.01.2010 06:00 -1,7 C 93 % 1009,7 hPa 0,0 l/m W 10,1 km/h (2 Bft)
02.01.2010 07:00 -2,1 C 91 % 1010,5 hPa 0,0 l/m W-NW 15,2 km/h (3 Bft)
02.01.2010 08:00 -2,4 C 89 % 1011,6 hPa 0,0 l/m W-NW 14,1 km/h (3 Bft)
02.01.2010 09:00 -2,3 C 89 % 1013,0 hPa 0,0 l/m W-NW 12,1 km/h (2 Bft)
02.01.2010 10:00 -2,2 C 86 % 1014,1 hPa 0,0 l/m W-NW 12,9 km/h (3 Bft)
02.01.2010 11:00 -2,0 C 81 % 1014,8 hPa 0,0 l/m N-NW 13,4 km/h (3 Bft)
02.01.2010 12:00 -1,6 C 78 % 1015,4 hPa 0,0 l/m W-NW 16,8 km/h (3 Bft)
02.01.2010 13:00 -1,4 C 73 % 1016,3 hPa 0,0 l/m W-NW 13,3 km/h (3 Bft)
02.01.2010 14:00 -1,6 C 72 % 1017,1 hPa 0,0 l/m W 13,8 km/h (3 Bft)
02.01.2010 15:00 -1,8 C 72 % 1018,0 hPa 0,0 l/m W 10,6 km/h (2 Bft)
02.01.2010 16:00 -2,5 C 78 % 1019,0 hPa 0,0 l/m W-SW 5,9 km/h (2 Bft)
02.01.2010 17:00 -3,8 C 82 % 1019,9 hPa 0,0 l/m N 1,5 km/h (1 Bft)
02.01.2010 18:00 -5,3 C 86 % 1020,8 hPa 0,0 l/m N 1,2 km/h (1 Bft)
02.01.2010 19:00 -6,3 C 89 % 1021,3 hPa 0,0 l/m N 0,1 km/h (0 Bft)
02.01.2010 20:00 -6,5 C 91 % 1021,5 hPa 0,0 l/m W-SW 2,7 km/h (1 Bft)
02.01.2010 21:00 -6,2 C 92 % 1021,7 hPa 0,0 l/m W-SW 4,8 km/h (1 Bft)
02.01.2010 22:00 -6,8 C 89 % 1021,8 hPa 0,0 l/m S-SW 2,5 km/h (1 Bft)
02.01.2010 23:00 -7,7 C 91 % 1022,2 hPa 0,0 l/m N 1,9 km/h (1 Bft)
03.01.2010 00:00 -8,1 C 92 % 1022,1 hPa 0,0 l/m N 1,6 km/h (1 Bft)
Min-Datum _ 03.01.10 02.01.10 01.01.10 - - 28.12.09
_ Min-Zeit 00:15 14:00 05:30 - - 07:50
Minimum _ -8,2 C 70 % 989,7 hPa - - 0,0 km/h (0 Bft)
Max-Datum _ 30.12.09 30.12.09 02.01.10 29.12.09 - 30.12.09
_ Max-Zeit 18:05 00:35 23:25 07:00 - 07:55
Maximum _ 7,4 C 100 % 1022,3 hPa 1,6 l/m - 37,0 km/h
SW (5 Bft)
Durchschnitt _ 1,9 C 94 % 1001,8 hPa #21,8 l/m SW 9,0 km/h (2 Bft)